sensor_id;sensor_type;location;lat;lon;timestamp;pressure;altitude;pressure_sealevel;temperature;humidity
63970;BME280;50156;37.772;-122.432;2022-09-23T00:01:14;101133.81;;;22.87;100.00
63970;BME280;50156;37.772;-122.432;2022-09-23T00:03:44;101130.28;;;22.98;100.00
63970;BME280;50156;37.772;-122.432;2022-09-23T00:06:15;101133.27;;;23.21;100.00
63970;BME280;50156;37.772;-122.432;2022-09-23T00:08:45;101126.00;;;22.77;100.00
63970;BME280;50156;37.772;-122.432;2022-09-23T00:11:15;101129.67;;;23.03;100.00
63970;BME280;50156;37.772;-122.432;2022-09-23T00:13:46;101131.94;;;22.78;100.00
63970;BME280;50156;37.772;-122.432;2022-09-23T00:16:18;101122.77;;;22.83;100.00
63970;BME280;50156;37.772;-122.432;2022-09-23T00:18:48;101132.45;;;22.47;100.00
63970;BME280;50156;37.772;-122.432;2022-09-23T00:21:19;101134.01;;;22.53;100.00
63970;BME280;50156;37.772;-122.432;2022-09-23T00:23:48;101125.53;;;22.73;100.00
63970;BME280;50156;37.772;-122.432;2022-09-23T00:26:18;101117.96;;;22.59;100.00
63970;BME280;50156;37.772;-122.432;2022-09-23T00:28:48;101111.44;;;22.28;100.00
63970;BME280;50156;37.772;-122.432;2022-09-23T00:31:20;101111.50;;;22.41;100.00
63970;BME280;50156;37.772;-122.432;2022-09-23T00:33:53;101119.34;;;22.42;100.00
63970;BME280;50156;37.772;-122.432;2022-09-23T00:36:22;101116.85;;;22.19;100.00
63970;BME280;50156;37.772;-122.432;2022-09-23T00:38:51;101113.94;;;22.20;100.00
63970;BME280;50156;37.772;-122.432;2022-09-23T00:41:20;101114.90;;;22.15;100.00
63970;BME280;50156;37.772;-122.432;2022-09-23T00:43:50;101113.65;;;22.10;100.00
63970;BME280;50156;37.772;-122.432;2022-09-23T00:46:22;101113.16;;;21.99;100.00
63970;BME280;50156;37.772;-122.432;2022-09-23T00:48:59;101106.35;;;22.05;100.00
63970;BME280;50156;37.772;-122.432;2022-09-23T00:51:33;101108.45;;;21.71;100.00
63970;BME280;50156;37.772;-122.432;2022-09-23T00:54:05;101120.02;;;21.54;100.00
63970;BME280;50156;37.772;-122.432;2022-09-23T00:56:35;101111.56;;;21.55;100.00
63970;BME280;50156;37.772;-122.432;2022-09-23T00:59:05;101111.84;;;21.52;100.00
63970;BME280;50156;37.772;-122.432;2022-09-23T01:01:34;101110.92;;;21.43;100.00
63970;BME280;50156;37.772;-122.432;2022-09-23T01:04:03;101111.03;;;21.13;100.00
63970;BME280;50156;37.772;-122.432;2022-09-23T01:06:33;101116.72;;;21.00;100.00
63970;BME280;50156;37.772;-122.432;2022-09-23T01:09:02;101114.73;;;20.95;100.00
63970;BME280;50156;37.772;-122.432;2022-09-23T01:11:38;101107.45;;;20.91;100.00
63970;BME280;50156;37.772;-122.432;2022-09-23T01:14:28;101101.31;;;21.03;100.00
63970;BME280;50156;37.772;-122.432;2022-09-23T01:17:05;101103.53;;;20.98;100.00
63970;BME280;50156;37.772;-122.432;2022-09-23T01:19:54;101106.50;;;20.97;100.00
63970;BME280;50156;37.772;-122.432;2022-09-23T01:22:38;101106.76;;;21.10;100.00
63970;BME280;50156;37.772;-122.432;2022-09-23T01:25:26;101109.20;;;20.99;100.00
63970;BME280;50156;37.772;-122.432;2022-09-23T01:28:12;101105.59;;;20.67;100.00
63970;BME280;50156;37.772;-122.432;2022-09-23T01:30:52;101104.85;;;20.52;100.00
63970;BME280;50156;37.772;-122.432;2022-09-23T01:33:32;101104.39;;;20.43;100.00
63970;BME280;50156;37.772;-122.432;2022-09-23T01:36:09;101102.41;;;20.25;100.00
63970;BME280;50156;37.772;-122.432;2022-09-23T01:38:46;101102.03;;;20.08;100.00
63970;BME280;50156;37.772;-122.432;2022-09-23T01:41:32;101102.52;;;19.74;100.00
63970;BME280;50156;37.772;-122.432;2022-09-23T01:44:07;101098.76;;;19.55;100.00
63970;BME280;50156;37.772;-122.432;2022-09-23T01:46:41;101099.06;;;19.35;100.00
63970;BME280;50156;37.772;-122.432;2022-09-23T01:49:17;101097.76;;;19.18;100.00
63970;BME280;50156;37.772;-122.432;2022-09-23T01:51:52;101098.40;;;18.91;100.00
63970;BME280;50156;37.772;-122.432;2022-09-23T01:54:29;101104.75;;;18.81;100.00
63970;BME280;50156;37.772;-122.432;2022-09-23T01:57:05;101104.35;;;18.62;100.00
63970;BME280;50156;37.772;-122.432;2022-09-23T01:59:37;101100.95;;;18.49;100.00
63970;BME280;50156;37.772;-122.432;2022-09-23T02:02:10;101100.97;;;18.24;100.00
63970;BME280;50156;37.772;-122.432;2022-09-23T02:04:46;101098.33;;;18.23;100.00
63970;BME280;50156;37.772;-122.432;2022-09-23T02:07:21;101103.37;;;18.09;100.00
63970;BME280;50156;37.772;-122.432;2022-09-23T02:09:56;101103.78;;;18.03;100.00
63970;BME280;50156;37.772;-122.432;2022-09-23T02:12:27;101100.00;;;17.97;100.00
63970;BME280;50156;37.772;-122.432;2022-09-23T02:15:02;101098.64;;;17.82;100.00
63970;BME280;50156;37.772;-122.432;2022-09-23T02:17:35;101105.14;;;17.79;100.00
63970;BME280;50156;37.772;-122.432;2022-09-23T02:20:07;101099.87;;;17.77;100.00
63970;BME280;50156;37.772;-122.432;2022-09-23T02:22:40;101101.13;;;17.75;100.00
63970;BME280;50156;37.772;-122.432;2022-09-23T02:25:09;101101.33;;;17.68;100.00
63970;BME280;50156;37.772;-122.432;2022-09-23T02:27:44;101103.73;;;17.62;100.00
63970;BME280;50156;37.772;-122.432;2022-09-23T02:30:16;101104.65;;;17.60;100.00
63970;BME280;50156;37.772;-122.432;2022-09-23T02:32:51;101105.71;;;17.57;100.00
63970;BME280;50156;37.772;-122.432;2022-09-23T02:35:28;101107.78;;;17.52;100.00
63970;BME280;50156;37.772;-122.432;2022-09-23T02:38:10;101114.34;;;17.47;100.00
63970;BME280;50156;37.772;-122.432;2022-09-23T02:40:51;101118.09;;;17.40;100.00
63970;BME280;50156;37.772;-122.432;2022-09-23T02:43:22;101120.72;;;17.35;100.00
63970;BME280;50156;37.772;-122.432;2022-09-23T02:45:54;101118.19;;;17.33;100.00
63970;BME280;50156;37.772;-122.432;2022-09-23T02:48:25;101117.92;;;17.27;100.00
63970;BME280;50156;37.772;-122.432;2022-09-23T02:50:57;101118.51;;;17.27;100.00
63970;BME280;50156;37.772;-122.432;2022-09-23T02:53:26;101118.14;;;17.24;100.00
63970;BME280;50156;37.772;-122.432;2022-09-23T02:55:54;101119.88;;;17.23;100.00
63970;BME280;50156;37.772;-122.432;2022-09-23T02:58:22;101121.98;;;17.20;100.00
63970;BME280;50156;37.772;-122.432;2022-09-23T03:01:00;101123.89;;;17.15;100.00
63970;BME280;50156;37.772;-122.432;2022-09-23T03:03:39;101124.68;;;17.09;100.00
63970;BME280;50156;37.772;-122.432;2022-09-23T03:06:19;101126.99;;;17.11;100.00
63970;BME280;50156;37.772;-122.432;2022-09-23T03:08:56;101129.70;;;17.07;100.00
63970;BME280;50156;37.772;-122.432;2022-09-23T03:11:27;101136.41;;;17.05;100.00
63970;BME280;50156;37.772;-122.432;2022-09-23T03:14:05;101138.84;;;17.04;100.00
63970;BME280;50156;37.772;-122.432;2022-09-23T03:16:44;101143.07;;;17.04;100.00
63970;BME280;50156;37.772;-122.432;2022-09-23T03:19:24;101143.06;;;17.01;100.00
63970;BME280;50156;37.772;-122.432;2022-09-23T03:22:01;101141.29;;;16.96;100.00
63970;BME280;50156;37.772;-122.432;2022-09-23T03:24:32;101139.19;;;16.94;100.00
63970;BME280;50156;37.772;-122.432;2022-09-23T03:27:04;101138.33;;;16.93;100.00
63970;BME280;50156;37.772;-122.432;2022-09-23T03:29:35;101143.43;;;16.91;100.00
63970;BME280;50156;37.772;-122.432;2022-09-23T03:32:04;101146.95;;;16.89;100.00
63970;BME280;50156;37.772;-122.432;2022-09-23T03:34:33;101148.66;;;16.87;100.00
63970;BME280;50156;37.772;-122.432;2022-09-23T03:37:08;101149.08;;;16.86;100.00
63970;BME280;50156;37.772;-122.432;2022-09-23T03:39:41;101150.85;;;16.87;100.00
63970;BME280;50156;37.772;-122.432;2022-09-23T03:42:13;101153.18;;;16.86;100.00
63970;BME280;50156;37.772;-122.432;2022-09-23T03:44:44;101153.77;;;16.92;100.00
63970;BME280;50156;37.772;-122.432;2022-09-23T03:47:14;101154.36;;;16.91;100.00
63970;BME280;50156;37.772;-122.432;2022-09-23T03:49:47;101156.69;;;16.90;100.00
63970;BME280;50156;37.772;-122.432;2022-09-23T03:52:18;101162.30;;;16.87;100.00
63970;BME280;50156;37.772;-122.432;2022-09-23T03:54:48;101164.81;;;16.82;100.00
63970;BME280;50156;37.772;-122.432;2022-09-23T03:57:17;101168.63;;;16.73;100.00
63970;BME280;50156;37.772;-122.432;2022-09-23T03:59:46;101174.02;;;16.75;100.00
63970;BME280;50156;37.772;-122.432;2022-09-23T04:02:14;101175.87;;;16.68;100.00
63970;BME280;50156;37.772;-122.432;2022-09-23T04:04:44;101179.27;;;16.62;100.00
63970;BME280;50156;37.772;-122.432;2022-09-23T04:07:13;101179.20;;;16.63;100.00
63970;BME280;50156;37.772;-122.432;2022-09-23T04:09:42;101179.99;;;16.64;100.00
63970;BME280;50156;37.772;-122.432;2022-09-23T04:12:14;101179.08;;;16.59;100.00
63970;BME280;50156;37.772;-122.432;2022-09-23T04:14:43;101179.26;;;16.60;100.00
63970;BME280;50156;37.772;-122.432;2022-09-23T04:17:12;101180.10;;;16.61;100.00
63970;BME280;50156;37.772;-122.432;2022-09-23T04:19:41;101181.92;;;16.62;100.00
63970;BME280;50156;37.772;-122.432;2022-09-23T04:22:10;101179.37;;;16.60;100.00
63970;BME280;50156;37.772;-122.432;2022-09-23T04:24:39;101178.33;;;16.59;100.00
63970;BME280;50156;37.772;-122.432;2022-09-23T04:27:07;101179.05;;;16.60;100.00
63970;BME280;50156;37.772;-122.432;2022-09-23T04:29:36;101180.74;;;16.62;100.00
63970;BME280;50156;37.772;-122.432;2022-09-23T04:32:05;101177.95;;;16.61;100.00
63970;BME280;50156;37.772;-122.432;2022-09-23T04:34:33;101175.80;;;16.59;100.00
63970;BME280;50156;37.772;-122.432;2022-09-23T04:37:02;101180.20;;;16.57;100.00
63970;BME280;50156;37.772;-122.432;2022-09-23T04:39:30;101179.55;;;16.60;100.00
63970;BME280;50156;37.772;-122.432;2022-09-23T04:41:58;101182.40;;;16.55;100.00
63970;BME280;50156;37.772;-122.432;2022-09-23T04:44:26;101180.04;;;16.49;100.00
63970;BME280;50156;37.772;-122.432;2022-09-23T04:46:55;101178.58;;;16.59;100.00
63970;BME280;50156;37.772;-122.432;2022-09-23T04:49:24;101175.11;;;16.59;100.00
63970;BME280;50156;37.772;-122.432;2022-09-23T04:51:52;101174.54;;;16.60;100.00
63970;BME280;50156;37.772;-122.432;2022-09-23T04:54:21;101171.81;;;16.58;100.00
63970;BME280;50156;37.772;-122.432;2022-09-23T04:56:51;101166.41;;;16.59;100.00
63970;BME280;50156;37.772;-122.432;2022-09-23T04:59:19;101165.19;;;16.57;100.00
63970;BME280;50156;37.772;-122.432;2022-09-23T05:01:48;101161.57;;;16.56;100.00
63970;BME280;50156;37.772;-122.432;2022-09-23T05:04:17;101161.22;;;16.57;100.00
63970;BME280;50156;37.772;-122.432;2022-09-23T05:06:46;101165.04;;;16.52;100.00
63970;BME280;50156;37.772;-122.432;2022-09-23T05:09:16;101163.65;;;16.50;100.00
63970;BME280;50156;37.772;-122.432;2022-09-23T05:11:45;101162.68;;;16.49;100.00
63970;BME280;50156;37.772;-122.432;2022-09-23T05:14:13;101160.81;;;16.51;100.00
63970;BME280;50156;37.772;-122.432;2022-09-23T05:16:42;101161.73;;;16.48;100.00
63970;BME280;50156;37.772;-122.432;2022-09-23T05:19:11;101157.38;;;16.45;100.00
63970;BME280;50156;37.772;-122.432;2022-09-23T05:21:40;101160.48;;;16.42;100.00
63970;BME280;50156;37.772;-122.432;2022-09-23T05:24:10;101159.50;;;16.41;100.00
63970;BME280;50156;37.772;-122.432;2022-09-23T05:26:40;101160.27;;;16.41;100.00
63970;BME280;50156;37.772;-122.432;2022-09-23T05:29:08;101158.02;;;16.30;100.00
63970;BME280;50156;37.772;-122.432;2022-09-23T05:31:38;101158.69;;;16.29;100.00
63970;BME280;50156;37.772;-122.432;2022-09-23T05:34:07;101158.83;;;16.27;100.00
63970;BME280;50156;37.772;-122.432;2022-09-23T05:36:36;101158.75;;;16.26;100.00
63970;BME280;50156;37.772;-122.432;2022-09-23T05:39:06;101160.59;;;16.23;100.00
63970;BME280;50156;37.772;-122.432;2022-09-23T05:41:35;101161.54;;;16.16;100.00
63970;BME280;50156;37.772;-122.432;2022-09-23T05:44:04;101162.63;;;16.11;100.00
63970;BME280;50156;37.772;-122.432;2022-09-23T05:46:32;101160.13;;;16.11;100.00
63970;BME280;50156;37.772;-122.432;2022-09-23T05:49:02;101157.89;;;16.12;100.00
63970;BME280;50156;37.772;-122.432;2022-09-23T05:51:32;101158.28;;;16.05;100.00
63970;BME280;50156;37.772;-122.432;2022-09-23T05:54:02;101156.16;;;16.06;100.00
63970;BME280;50156;37.772;-122.432;2022-09-23T05:56:32;101152.70;;;16.03;100.00
63970;BME280;50156;37.772;-122.432;2022-09-23T05:59:02;101152.52;;;15.98;100.00
63970;BME280;50156;37.772;-122.432;2022-09-23T06:01:33;101150.47;;;16.01;100.00
63970;BME280;50156;37.772;-122.432;2022-09-23T06:04:04;101152.77;;;15.95;100.00
63970;BME280;50156;37.772;-122.432;2022-09-23T06:06:35;101150.92;;;15.93;100.00
63970;BME280;50156;37.772;-122.432;2022-09-23T06:09:04;101153.93;;;15.93;100.00
63970;BME280;50156;37.772;-122.432;2022-09-23T06:11:34;101154.20;;;15.89;100.00
63970;BME280;50156;37.772;-122.432;2022-09-23T06:14:03;101156.69;;;15.90;100.00
63970;BME280;50156;37.772;-122.432;2022-09-23T06:16:34;101158.90;;;15.88;100.00
63970;BME280;50156;37.772;-122.432;2022-09-23T06:19:03;101157.55;;;15.89;100.00
63970;BME280;50156;37.772;-122.432;2022-09-23T06:21:32;101158.60;;;15.83;100.00
63970;BME280;50156;37.772;-122.432;2022-09-23T06:24:01;101161.44;;;15.84;100.00
63970;BME280;50156;37.772;-122.432;2022-09-23T06:26:30;101163.83;;;15.79;100.00
63970;BME280;50156;37.772;-122.432;2022-09-23T06:28:59;101161.60;;;15.76;100.00
63970;BME280;50156;37.772;-122.432;2022-09-23T06:31:28;101156.32;;;15.73;100.00
63970;BME280;50156;37.772;-122.432;2022-09-23T06:33:57;101155.78;;;15.74;100.00
63970;BME280;50156;37.772;-122.432;2022-09-23T06:36:25;101157.08;;;15.72;100.00
63970;BME280;50156;37.772;-122.432;2022-09-23T06:38:53;101155.68;;;15.67;100.00
63970;BME280;50156;37.772;-122.432;2022-09-23T06:41:22;101151.24;;;15.66;100.00
63970;BME280;50156;37.772;-122.432;2022-09-23T06:43:50;101151.42;;;15.61;100.00
63970;BME280;50156;37.772;-122.432;2022-09-23T06:46:18;101153.49;;;15.62;100.00
63970;BME280;50156;37.772;-122.432;2022-09-23T06:48:48;101148.04;;;15.64;100.00
63970;BME280;50156;37.772;-122.432;2022-09-23T06:51:16;101148.19;;;15.59;100.00
63970;BME280;50156;37.772;-122.432;2022-09-23T06:53:46;101150.11;;;15.56;100.00
63970;BME280;50156;37.772;-122.432;2022-09-23T06:56:16;101152.38;;;15.64;100.00
63970;BME280;50156;37.772;-122.432;2022-09-23T06:58:44;101154.50;;;15.64;100.00
63970;BME280;50156;37.772;-122.432;2022-09-23T07:01:15;101157.16;;;15.67;100.00
63970;BME280;50156;37.772;-122.432;2022-09-23T07:03:44;101156.03;;;15.70;100.00
63970;BME280;50156;37.772;-122.432;2022-09-23T07:06:13;101156.84;;;15.65;100.00
63970;BME280;50156;37.772;-122.432;2022-09-23T07:08:43;101158.77;;;15.71;100.00
63970;BME280;50156;37.772;-122.432;2022-09-23T07:11:13;101155.57;;;15.71;100.00
63970;BME280;50156;37.772;-122.432;2022-09-23T07:13:43;101155.15;;;15.66;100.00
63970;BME280;50156;37.772;-122.432;2022-09-23T07:16:12;101153.62;;;15.66;100.00
63970;BME280;50156;37.772;-122.432;2022-09-23T07:18:41;101153.18;;;15.56;100.00
63970;BME280;50156;37.772;-122.432;2022-09-23T07:21:12;101154.31;;;15.54;100.00
63970;BME280;50156;37.772;-122.432;2022-09-23T07:23:42;101152.94;;;15.54;100.00
63970;BME280;50156;37.772;-122.432;2022-09-23T07:26:10;101155.39;;;15.50;100.00
63970;BME280;50156;37.772;-122.432;2022-09-23T07:28:40;101156.15;;;15.44;100.00
63970;BME280;50156;37.772;-122.432;2022-09-23T07:31:11;101158.73;;;15.43;100.00
63970;BME280;50156;37.772;-122.432;2022-09-23T07:33:41;101160.23;;;15.48;100.00
63970;BME280;50156;37.772;-122.432;2022-09-23T07:36:12;101161.46;;;15.46;100.00
63970;BME280;50156;37.772;-122.432;2022-09-23T07:38:41;101162.16;;;15.42;100.00
63970;BME280;50156;37.772;-122.432;2022-09-23T07:41:12;101158.77;;;15.30;100.00
63970;BME280;50156;37.772;-122.432;2022-09-23T07:43:41;101157.84;;;15.26;100.00
63970;BME280;50156;37.772;-122.432;2022-09-23T07:46:13;101157.05;;;15.22;100.00
63970;BME280;50156;37.772;-122.432;2022-09-23T07:48:43;101157.81;;;15.19;100.00
63970;BME280;50156;37.772;-122.432;2022-09-23T07:51:13;101157.56;;;15.22;100.00
63970;BME280;50156;37.772;-122.432;2022-09-23T07:53:46;101155.62;;;15.13;100.00
63970;BME280;50156;37.772;-122.432;2022-09-23T07:56:15;101159.09;;;15.04;100.00
63970;BME280;50156;37.772;-122.432;2022-09-23T07:58:45;101157.16;;;15.09;100.00
63970;BME280;50156;37.772;-122.432;2022-09-23T08:01:13;101156.46;;;15.10;100.00
63970;BME280;50156;37.772;-122.432;2022-09-23T08:03:45;101154.82;;;15.11;100.00
63970;BME280;50156;37.772;-122.432;2022-09-23T08:06:13;101154.52;;;15.02;100.00
63970;BME280;50156;37.772;-122.432;2022-09-23T08:08:43;101158.87;;;15.08;100.00
63970;BME280;50156;37.772;-122.432;2022-09-23T08:11:12;101157.46;;;15.05;100.00
63970;BME280;50156;37.772;-122.432;2022-09-23T08:13:41;101160.66;;;15.11;100.00
63970;BME280;50156;37.772;-122.432;2022-09-23T08:16:10;101163.28;;;15.12;100.00
63970;BME280;50156;37.772;-122.432;2022-09-23T08:18:42;101164.51;;;15.06;100.00
63970;BME280;50156;37.772;-122.432;2022-09-23T08:21:10;101164.15;;;15.06;100.00
63970;BME280;50156;37.772;-122.432;2022-09-23T08:23:40;101165.74;;;15.06;100.00
63970;BME280;50156;37.772;-122.432;2022-09-23T08:26:09;101168.03;;;15.04;100.00
63970;BME280;50156;37.772;-122.432;2022-09-23T08:28:37;101168.92;;;15.02;100.00
63970;BME280;50156;37.772;-122.432;2022-09-23T08:31:05;101167.23;;;15.03;100.00
63970;BME280;50156;37.772;-122.432;2022-09-23T08:33:33;101168.24;;;15.04;100.00
63970;BME280;50156;37.772;-122.432;2022-09-23T08:36:03;101166.96;;;15.00;100.00
63970;BME280;50156;37.772;-122.432;2022-09-23T08:38:32;101173.04;;;14.98;100.00
63970;BME280;50156;37.772;-122.432;2022-09-23T08:41:07;101172.95;;;15.00;100.00
63970;BME280;50156;37.772;-122.432;2022-09-23T08:43:46;101173.68;;;14.99;100.00
63970;BME280;50156;37.772;-122.432;2022-09-23T08:46:22;101173.93;;;15.02;100.00
63970;BME280;50156;37.772;-122.432;2022-09-23T08:48:54;101175.32;;;14.97;100.00
63970;BME280;50156;37.772;-122.432;2022-09-23T08:51:27;101176.80;;;14.97;100.00
63970;BME280;50156;37.772;-122.432;2022-09-23T08:53:57;101175.48;;;14.90;100.00
63970;BME280;50156;37.772;-122.432;2022-09-23T08:56:28;101179.43;;;14.96;100.00
63970;BME280;50156;37.772;-122.432;2022-09-23T08:59:04;101185.83;;;14.89;100.00
63970;BME280;50156;37.772;-122.432;2022-09-23T09:01:40;101191.34;;;14.89;100.00
63970;BME280;50156;37.772;-122.432;2022-09-23T09:04:20;101193.39;;;14.88;100.00
63970;BME280;50156;37.772;-122.432;2022-09-23T09:06:53;101191.87;;;14.91;100.00
63970;BME280;50156;37.772;-122.432;2022-09-23T09:09:26;101193.60;;;14.90;100.00
63970;BME280;50156;37.772;-122.432;2022-09-23T09:12:02;101193.99;;;14.86;100.00
63970;BME280;50156;37.772;-122.432;2022-09-23T09:14:36;101196.80;;;14.87;100.00
63970;BME280;50156;37.772;-122.432;2022-09-23T09:17:14;101197.41;;;14.86;100.00
63970;BME280;50156;37.772;-122.432;2022-09-23T09:19:53;101201.05;;;14.85;100.00
63970;BME280;50156;37.772;-122.432;2022-09-23T09:22:36;101199.24;;;14.86;100.00
63970;BME280;50156;37.772;-122.432;2022-09-23T09:25:20;101198.08;;;14.84;100.00
63970;BME280;50156;37.772;-122.432;2022-09-23T09:27:51;101196.82;;;14.83;100.00
63970;BME280;50156;37.772;-122.432;2022-09-23T09:30:21;101192.65;;;14.80;100.00
63970;BME280;50156;37.772;-122.432;2022-09-23T09:32:56;101196.77;;;14.82;100.00
63970;BME280;50156;37.772;-122.432;2022-09-23T09:35:34;101196.94;;;14.69;100.00
63970;BME280;50156;37.772;-122.432;2022-09-23T09:38:04;101199.10;;;14.74;100.00
63970;BME280;50156;37.772;-122.432;2022-09-23T09:40:34;101199.35;;;14.75;100.00
63970;BME280;50156;37.772;-122.432;2022-09-23T09:43:09;101200.55;;;14.67;100.00
63970;BME280;50156;37.772;-122.432;2022-09-23T09:45:51;101199.80;;;14.68;100.00
63970;BME280;50156;37.772;-122.432;2022-09-23T09:48:29;101196.91;;;14.69;100.00
63970;BME280;50156;37.772;-122.432;2022-09-23T09:51:17;101193.33;;;14.67;100.00
63970;BME280;50156;37.772;-122.432;2022-09-23T09:53:46;101190.71;;;14.66;100.00
63970;BME280;50156;37.772;-122.432;2022-09-23T09:56:15;101193.67;;;14.58;100.00
63970;BME280;50156;37.772;-122.432;2022-09-23T09:58:47;101193.98;;;14.53;100.00
63970;BME280;50156;37.772;-122.432;2022-09-23T10:01:25;101192.20;;;14.50;100.00
63970;BME280;50156;37.772;-122.432;2022-09-23T10:03:56;101190.00;;;14.40;100.00
63970;BME280;50156;37.772;-122.432;2022-09-23T10:06:27;101186.21;;;14.38;100.00
63970;BME280;50156;37.772;-122.432;2022-09-23T10:09:15;101185.43;;;14.39;100.00
63970;BME280;50156;37.772;-122.432;2022-09-23T10:12:03;101182.79;;;14.23;100.00
63970;BME280;50156;37.772;-122.432;2022-09-23T10:14:38;101183.93;;;14.25;100.00
63970;BME280;50156;37.772;-122.432;2022-09-23T10:17:11;101185.23;;;14.31;100.00
63970;BME280;50156;37.772;-122.432;2022-09-23T10:19:46;101184.30;;;14.31;100.00
63970;BME280;50156;37.772;-122.432;2022-09-23T10:22:21;101181.31;;;14.36;100.00
63970;BME280;50156;37.772;-122.432;2022-09-23T10:24:53;101181.38;;;14.34;100.00
63970;BME280;50156;37.772;-122.432;2022-09-23T10:27:29;101181.62;;;14.36;100.00
63970;BME280;50156;37.772;-122.432;2022-09-23T10:30:00;101181.63;;;14.40;100.00
63970;BME280;50156;37.772;-122.432;2022-09-23T10:32:30;101178.42;;;14.41;100.00
63970;BME280;50156;37.772;-122.432;2022-09-23T10:35:12;101175.64;;;14.45;100.00
63970;BME280;50156;37.772;-122.432;2022-09-23T10:37:43;101171.46;;;14.34;100.00
63970;BME280;50156;37.772;-122.432;2022-09-23T10:40:17;101174.80;;;14.40;100.00
63970;BME280;50156;37.772;-122.432;2022-09-23T10:42:55;101171.93;;;14.40;100.00
63970;BME280;50156;37.772;-122.432;2022-09-23T10:45:33;101168.63;;;14.38;100.00
63970;BME280;50156;37.772;-122.432;2022-09-23T10:48:11;101169.83;;;14.34;100.00
63970;BME280;50156;37.772;-122.432;2022-09-23T10:50:46;101169.78;;;14.44;100.00
63970;BME280;50156;37.772;-122.432;2022-09-23T10:53:22;101169.49;;;14.43;100.00
63970;BME280;50156;37.772;-122.432;2022-09-23T10:56:11;101168.68;;;14.49;100.00
63970;BME280;50156;37.772;-122.432;2022-09-23T10:59:03;101164.87;;;14.35;100.00
63970;BME280;50156;37.772;-122.432;2022-09-23T11:01:42;101166.63;;;14.29;100.00
63970;BME280;50156;37.772;-122.432;2022-09-23T11:04:30;101165.55;;;14.33;100.00
63970;BME280;50156;37.772;-122.432;2022-09-23T11:07:13;101168.42;;;14.23;100.00
63970;BME280;50156;37.772;-122.432;2022-09-23T11:10:05;101165.41;;;14.22;100.00
63970;BME280;50156;37.772;-122.432;2022-09-23T11:12:46;101161.01;;;14.12;100.00
63970;BME280;50156;37.772;-122.432;2022-09-23T11:15:31;101160.34;;;14.18;100.00
63970;BME280;50156;37.772;-122.432;2022-09-23T11:18:19;101161.49;;;14.26;100.00
63970;BME280;50156;37.772;-122.432;2022-09-23T11:20:59;101165.67;;;14.26;100.00
63970;BME280;50156;37.772;-122.432;2022-09-23T11:23:49;101165.21;;;14.16;100.00
63970;BME280;50156;37.772;-122.432;2022-09-23T11:26:30;101166.50;;;14.10;100.00
63970;BME280;50156;37.772;-122.432;2022-09-23T11:29:13;101169.48;;;14.16;100.00
63970;BME280;50156;37.772;-122.432;2022-09-23T11:31:56;101172.65;;;14.05;100.00
63970;BME280;50156;37.772;-122.432;2022-09-23T11:34:43;101173.32;;;14.08;100.00
63970;BME280;50156;37.772;-122.432;2022-09-23T11:37:19;101172.27;;;14.06;100.00
63970;BME280;50156;37.772;-122.432;2022-09-23T11:39:52;101174.19;;;13.96;100.00
63970;BME280;50156;37.772;-122.432;2022-09-23T11:42:25;101169.99;;;13.99;100.00
63970;BME280;50156;37.772;-122.432;2022-09-23T11:44:58;101168.23;;;13.92;100.00
63970;BME280;50156;37.772;-122.432;2022-09-23T11:47:34;101168.09;;;13.92;100.00
63970;BME280;50156;37.772;-122.432;2022-09-23T11:50:08;101164.58;;;13.94;100.00
63970;BME280;50156;37.772;-122.432;2022-09-23T11:52:45;101160.62;;;13.88;100.00
63970;BME280;50156;37.772;-122.432;2022-09-23T11:55:18;101157.95;;;13.80;100.00
63970;BME280;50156;37.772;-122.432;2022-09-23T11:57:53;101159.43;;;13.96;100.00
63970;BME280;50156;37.772;-122.432;2022-09-23T12:00:26;101156.10;;;13.92;100.00
63970;BME280;50156;37.772;-122.432;2022-09-23T12:03:02;101159.03;;;14.05;100.00
63970;BME280;50156;37.772;-122.432;2022-09-23T12:05:36;101158.32;;;13.97;100.00
63970;BME280;50156;37.772;-122.432;2022-09-23T12:08:13;101157.54;;;13.99;100.00
63970;BME280;50156;37.772;-122.432;2022-09-23T12:10:50;101156.19;;;14.05;100.00
63970;BME280;50156;37.772;-122.432;2022-09-23T12:13:29;101155.52;;;14.00;100.00
63970;BME280;50156;37.772;-122.432;2022-09-23T12:16:16;101158.93;;;13.96;100.00
63970;BME280;50156;37.772;-122.432;2022-09-23T12:19:02;101161.70;;;14.01;100.00
63970;BME280;50156;37.772;-122.432;2022-09-23T12:21:47;101159.88;;;13.96;100.00
63970;BME280;50156;37.772;-122.432;2022-09-23T12:24:34;101160.78;;;13.95;100.00
63970;BME280;50156;37.772;-122.432;2022-09-23T12:27:10;101161.79;;;13.99;100.00
63970;BME280;50156;37.772;-122.432;2022-09-23T12:29:44;101164.78;;;13.91;100.00
63970;BME280;50156;37.772;-122.432;2022-09-23T12:32:17;101163.91;;;14.06;100.00
63970;BME280;50156;37.772;-122.432;2022-09-23T12:34:48;101162.40;;;14.03;100.00
63970;BME280;50156;37.772;-122.432;2022-09-23T12:37:27;101161.92;;;14.19;100.00
63970;BME280;50156;37.772;-122.432;2022-09-23T12:40:04;101163.28;;;14.20;100.00